Vari — FAC5004 — position and weather

sailwx.info

Track history (hours):
 
Tides and Currents Weather Stations Pressure Air Temp Water Temp Dewpoint Dewpoint Depression Visibility Wind Speed Wind Dir Waves Ship Positions

Vari

Last reported at 2018-Jun-17 15:42 UTC. Time now 2018-Jun-17 22:03 UTC.
Position N 46°09' W 001°10'.

Length 11 m.

Type: Sailing vessel. MMSI: 227293090.

Date/timePositionNaut miles runAvg speedWind from/ knotsBaromVisibWave heightAir tempDewpointWater temp
2018-Jun-17 15:42N 46°09' W 001°10'0 0.0
2018-Jun-17 15:30N 46°09' W 001°10'0 0.0
2018-Jun-17 15:00N 46°09' W 001°10'0 0.2
2018-Jun-17 14:30N 46°09' W 001°10'1 2.4
2018-Jun-17 14:00N 46°08' W 001°12'3 6.3
2018-Jun-17 13:30N 46°07' W 001°16'1 2.6
2018-Jun-17 13:00N 46°07' W 001°14'2 3.8
2018-Jun-17 12:30N 46°08' W 001°11'2 4.7
2018-Jun-17 12:00N 46°07' W 001°14'1 1.9
2018-Jun-17 11:30N 46°06' W 001°14'1 2.5
2018-Jun-17 11:00N 46°06' W 001°16'2 4.4
2018-Jun-17 10:30N 46°07' W 001°13'2 3.9
2018-Jun-17 10:00N 46°09' W 001°11'1 0.9
2018-Jun-17 09:28N 46°09' W 001°10'  
Track history (hours):
 
Tides and Currents Weather Stations Pressure Air Temp Water Temp Dewpoint Dewpoint Depression Visibility Wind Speed Wind Dir Waves Ship Positions

Vari

Last reported at 2018-Jun-17 15:42 UTC. Time now 2018-Jun-17 22:03 UTC.
Position N 46°09' W 001°10'.

Length 11 m.

Type: Sailing vessel. MMSI: 227293090.

Date/timePositionNaut miles runAvg speedWind from/ knotsBaromVisibWave heightAir tempDewpointWater temp
2018-Jun-17 15:42N 46°09' W 001°10'0 0.0
2018-Jun-17 15:30N 46°09' W 001°10'0 0.0
2018-Jun-17 15:00N 46°09' W 001°10'0 0.2
2018-Jun-17 14:30N 46°09' W 001°10'1 2.4
2018-Jun-17 14:00N 46°08' W 001°12'3 6.3
2018-Jun-17 13:30N 46°07' W 001°16'1 2.6
2018-Jun-17 13:00N 46°07' W 001°14'2 3.8
2018-Jun-17 12:30N 46°08' W 001°11'2 4.7
2018-Jun-17 12:00N 46°07' W 001°14'1 1.9
2018-Jun-17 11:30N 46°06' W 001°14'1 2.5
2018-Jun-17 11:00N 46°06' W 001°16'2 4.4
2018-Jun-17 10:30N 46°07' W 001°13'2 3.9
2018-Jun-17 10:00N 46°09' W 001°11'1 0.9
2018-Jun-17 09:28N 46°09' W 001°10'  

Dump ship's entire track history